Time;durP1;ratioP1;P1;durP2;ratioP2;P2;SDS_P1;SDS_P2;PMS_P1;PMS_P2;Temp;Humidity;BMP_temperature;BMP_pressure;BME280_temperature;BME280_humidity;BME280_pressure;Samples;Min_cycle;Max_cycle;Signal;HPM_P1;HPM_P2
2023/07/26 00:02:18;;;;;;;6.32;0.68;;;;;;;10.67;58.63;100857.81;4949155;28;20035;-67
2023/07/26 00:04:45;;;;;;;2.22;0.52;;;;;;;10.28;59.15;100870.69;4946429;28;20042;-67
2023/07/26 00:07:10;;;;;;;2.25;0.40;;;;;;;10.43;58.36;100860.47;4951820;28;20026;-68
2023/07/26 00:09:35;;;;;;;2.42;0.55;;;;;;;10.68;57.60;100854.25;4945637;28;20046;-67
2023/07/26 00:12:01;;;;;;;1.65;0.40;;;;;;;10.50;57.53;100855.84;4946369;28;20948;-68
2023/07/26 00:14:27;;;;;;;2.20;0.17;;;;;;;10.70;57.14;100862.03;4979236;28;20145;-68
2023/07/26 00:16:52;;;;;;;3.03;0.40;;;;;;;10.75;57.05;100865.31;4946981;28;21143;-67
2023/07/26 00:19:19;;;;;;;1.73;0.38;;;;;;;10.60;57.27;100861.59;4946816;28;20114;-66
2023/07/26 00:21:50;;;;;;;3.03;0.30;;;;;;;10.38;58.01;100861.59;4945921;28;20306;-67
2023/07/26 00:24:25;;;;;;;1.87;0.30;;;;;;;10.51;57.38;100854.97;4947018;28;20035;-66
2023/07/26 00:26:51;;;;;;;0.80;0.50;;;;;;;10.17;58.13;100855.44;4945837;28;20286;-66
2023/07/26 00:29:16;;;;;;;4.03;0.40;;;;;;;10.41;57.71;100856.22;4951140;28;20046;-65
2023/07/26 00:31:43;;;;;;;0.85;0.20;;;;;;;10.53;57.07;100845.28;4965084;28;20030;-66
2023/07/26 00:34:09;;;;;;;4.28;0.38;;;;;;;10.69;56.66;100844.69;4979879;28;20045;-66
2023/07/26 00:36:34;;;;;;;4.82;0.50;;;;;;;10.21;58.01;100847.44;4963343;28;20039;-65
2023/07/26 00:39:00;;;;;;;0.95;0.20;;;;;;;10.36;57.74;100848.56;4965999;28;20543;-66
2023/07/26 00:41:25;;;;;;;1.55;0.30;;;;;;;10.58;57.30;100848.56;4964660;28;20121;-66
2023/07/26 00:43:52;;;;;;;1.27;0.20;;;;;;;10.50;57.18;100849.78;4964922;28;20092;-66
2023/07/26 00:46:18;;;;;;;1.52;0.28;;;;;;;10.57;57.31;100852.09;4969901;28;20038;-66
2023/07/26 00:48:44;;;;;;;2.38;0.40;;;;;;;10.54;57.15;100846.97;4977008;28;20030;-66
2023/07/26 00:51:10;;;;;;;4.45;0.30;;;;;;;10.56;57.45;100847.78;4967125;28;20038;-66
2023/07/26 00:53:36;;;;;;;4.10;0.40;;;;;;;10.57;57.55;100848.63;4965677;28;20045;-66
2023/07/26 00:56:02;;;;;;;1.88;0.40;;;;;;;10.76;57.21;100856.56;4968610;28;20042;-67
2023/07/26 00:58:28;;;;;;;1.17;0.40;;;;;;;10.72;57.26;100839.31;4981667;28;20034;-66
2023/07/26 01:00:54;;;;;;;5.20;0.30;;;;;;;10.59;57.62;100845.06;4962295;28;20606;-66
2023/07/26 01:03:20;;;;;;;7.22;0.70;;;;;;;10.62;57.83;100844.91;4967108;28;20049;-65
2023/07/26 01:06:07;;;;;;;3.35;0.57;;;;;;;10.59;57.79;100846.78;4976396;28;20042;-66
2023/07/26 01:09:17;;;;;;;1.88;0.30;;;;;;;10.75;57.17;100844.41;4968962;28;20042;-66
2023/07/26 01:12:00;;;;;;;3.13;0.43;;;;;;;10.87;57.04;100849.16;4934159;28;20141;-66
2023/07/26 01:14:31;;;;;;;4.85;0.35;;;;;;;10.59;57.48;100855.50;4944694;28;20121;-67
2023/07/26 01:16:56;;;;;;;4.82;0.93;;;;;;;10.64;57.38;100847.47;4945200;28;20082;-66
2023/07/26 01:19:22;;;;;;;6.25;0.70;;;;;;;10.73;57.25;100848.88;4945732;28;20035;-67
2023/07/26 01:21:47;;;;;;;4.32;1.20;;;;;;;10.82;56.73;100853.75;4945813;28;20041;-66
2023/07/26 01:24:13;;;;;;;4.43;0.45;;;;;;;10.82;56.75;100856.38;4946535;28;20306;-67
2023/07/26 01:26:38;;;;;;;2.42;0.38;;;;;;;10.72;57.10;100857.63;4944636;28;20580;-67
2023/07/26 01:29:05;;;;;;;4.50;0.65;;;;;;;10.62;57.28;100860.59;4961971;28;21272;-67
2023/07/26 01:31:31;;;;;;;4.07;0.47;;;;;;;10.52;58.03;100859.25;4942269;28;20101;-67
2023/07/26 01:33:59;;;;;;;4.72;0.30;;;;;;;10.80;56.81;100863.38;4932868;28;20035;-67
2023/07/26 01:36:29;;;;;;;5.47;0.30;;;;;;;10.88;56.57;100861.31;4966187;28;20022;-68
2023/07/26 01:38:57;;;;;;;4.90;0.40;;;;;;;10.82;57.07;100866.81;4965486;28;20068;-67
2023/07/26 01:41:23;;;;;;;9.05;0.50;;;;;;;10.55;57.62;100874.84;4942796;28;20037;-67
2023/07/26 01:43:49;;;;;;;2.40;0.47;;;;;;;9.96;59.50;100871.00;4947854;28;20043;-71
2023/07/26 01:46:15;;;;;;;2.70;0.50;;;;;;;10.40;58.09;100876.28;4982083;28;20038;-71
2023/07/26 01:48:40;;;;;;;7.32;0.50;;;;;;;10.68;57.57;100874.31;4966057;28;20493;-72
2023/07/26 01:51:06;;;;;;;3.15;0.63;;;;;;;10.78;57.50;100875.66;4963447;28;20129;-70
2023/07/26 01:53:33;;;;;;;3.53;0.40;;;;;;;10.70;57.73;100865.50;4969533;28;20161;-71
2023/07/26 01:56:02;;;;;;;4.47;0.68;;;;;;;10.74;57.69;100874.09;4968465;28;20427;-71
2023/07/26 01:58:28;;;;;;;3.08;0.80;;;;;;;10.88;57.26;100878.78;4970339;28;20101;-70
2023/07/26 02:00:53;;;;;;;5.53;0.45;;;;;;;10.60;57.58;100869.41;4948263;28;20039;-71
2023/07/26 02:03:21;;;;;;;2.53;0.55;;;;;;;10.54;57.87;100878.34;4937820;28;20413;-71
2023/07/26 02:05:47;;;;;;;4.38;0.60;;;;;;;10.75;57.68;100875.78;4949302;28;20121;-71
2023/07/26 02:08:13;;;;;;;2.38;0.38;;;;;;;10.88;57.19;100865.69;4948966;28;20450;-71
2023/07/26 02:10:39;;;;;;;4.72;0.57;;;;;;;10.90;56.78;100862.09;4962819;28;20601;-71
2023/07/26 02:13:07;;;;;;;6.20;0.40;;;;;;;10.78;57.27;100870.44;4970129;28;20038;-78
2023/07/26 02:15:33;;;;;;;4.70;0.30;;;;;;;10.69;57.88;100865.59;4931634;28;20070;-78
2023/07/26 02:18:00;;;;;;;3.90;0.38;;;;;;;10.43;58.65;100867.47;4949891;28;20042;-78
2023/07/26 02:20:29;;;;;;;2.63;0.32;;;;;;;10.68;58.27;100866.47;4967063;28;20040;-72
2023/07/26 02:22:56;;;;;;;5.28;0.40;;;;;;;10.48;58.79;100868.16;4966945;28;21589;-73
2023/07/26 02:25:21;;;;;;;6.32;0.75;;;;;;;10.65;58.52;100867.47;4971583;28;20572;-74
2023/07/26 02:27:46;;;;;;;7.90;1.00;;;;;;;10.42;59.23;100868.41;4968749;28;20053;-74
2023/07/26 02:30:12;;;;;;;2.38;0.50;;;;;;;10.76;58.38;100867.03;4968208;28;20207;-74
2023/07/26 02:32:38;;;;;;;3.50;0.50;;;;;;;10.79;58.21;100873.00;4963821;28;20536;-73
2023/07/26 02:35:04;;;;;;;8.07;0.82;;;;;;;10.68;58.61;100869.94;4962306;28;20061;-71
2023/07/26 02:37:29;;;;;;;3.28;0.60;;;;;;;10.60;58.59;100882.50;4966605;28;20501;-70
2023/07/26 02:39:55;;;;;;;7.93;0.70;;;;;;;10.53;58.85;100878.44;4967993;28;20034;-71
2023/07/26 02:42:21;;;;;;;7.35;0.68;;;;;;;10.20;59.68;100864.00;4963298;28;20512;-71
2023/07/26 02:44:47;;;;;;;3.95;0.55;;;;;;;10.53;58.52;100865.34;4970395;28;20670;-70
2023/07/26 02:47:13;;;;;;;1.65;0.60;;;;;;;10.73;57.77;100846.25;4953120;28;20173;-72
2023/07/26 02:49:39;;;;;;;4.72;0.50;;;;;;;10.86;57.20;100842.25;4966841;28;20034;-71
2023/07/26 02:52:05;;;;;;;5.65;0.65;;;;;;;10.51;57.48;100852.34;4952953;28;20634;-71
2023/07/26 02:54:31;;;;;;;4.63;0.80;;;;;;;10.35;57.61;100857.34;4963951;28;20084;-70
2023/07/26 02:56:56;;;;;;;2.17;0.45;;;;;;;10.30;57.59;100859.25;4965893;28;20034;-69
2023/07/26 02:59:22;;;;;;;3.33;0.65;;;;;;;9.93;57.67;100854.63;4962009;28;20501;-70
2023/07/26 03:01:47;;;;;;;2.95;0.30;;;;;;;10.27;57.30;100853.31;4970064;28;20077;-67
2023/07/26 03:04:13;;;;;;;0.98;0.28;;;;;;;10.30;57.04;100858.41;4968402;28;20139;-68
2023/07/26 03:06:40;;;;;;;2.97;0.52;;;;;;;10.40;56.79;100860.59;4962726;28;20113;-69
2023/07/26 03:09:05;;;;;;;3.00;0.60;;;;;;;10.43;57.19;100857.84;4969881;28;20421;-69
2023/07/26 03:11:31;;;;;;;3.10;0.88;;;;;;;10.49;56.79;100859.41;4968039;28;20034;-69
2023/07/26 03:13:56;;;;;;;3.08;0.45;;;;;;;10.49;56.73;100866.38;4950831;28;20030;-69
2023/07/26 03:16:22;;;;;;;2.60;0.47;;;;;;;10.39;57.23;100863.28;4950530;28;20385;-69
2023/07/26 03:18:47;;;;;;;2.33;0.50;;;;;;;10.46;57.24;100864.75;4969005;28;20053;-70
2023/07/26 03:21:13;;;;;;;4.53;0.30;;;;;;;10.31;57.21;100860.97;4953934;28;20193;-70
2023/07/26 03:23:39;;;;;;;3.63;1.30;;;;;;;10.26;57.68;100872.50;4963605;28;20448;-68
2023/07/26 03:26:04;;;;;;;1.40;0.52;;;;;;;10.33;57.74;100869.59;4965507;28;20046;-67
2023/07/26 03:28:30;;;;;;;1.77;0.40;;;;;;;10.38;57.47;100877.25;4969298;28;20033;-70
2023/07/26 03:30:55;;;;;;;3.25;0.63;;;;;;;10.48;57.75;100876.00;4968252;28;20069;-69
2023/07/26 03:33:21;;;;;;;2.78;0.65;;;;;;;10.43;57.79;100875.31;4967768;28;20037;-70
2023/07/26 03:35:47;;;;;;;4.00;0.65;;;;;;;10.33;58.36;100879.22;4969124;28;20051;-66
2023/07/26 03:38:13;;;;;;;7.53;0.75;;;;;;;10.37;58.56;100883.38;4958588;28;20043;-67
2023/07/26 03:40:40;;;;;;;3.95;0.70;;;;;;;10.28;58.90;100886.34;4966655;28;20583;-67
2023/07/26 03:43:07;;;;;;;4.60;0.52;;;;;;;10.48;58.43;100889.06;4966850;28;20306;-70
2023/07/26 03:45:33;;;;;;;5.22;1.05;;;;;;;10.57;58.01;100888.69;4966092;28;20045;-72
2023/07/26 03:47:59;;;;;;;5.90;0.60;;;;;;;10.21;58.95;100891.84;4968605;28;20034;-70
2023/07/26 03:50:25;;;;;;;6.07;0.70;;;;;;;10.12;59.58;100901.75;4967423;28;21552;-70
2023/07/26 03:52:50;;;;;;;2.08;1.15;;;;;;;9.70;60.85;100903.25;4967828;28;20050;-72
2023/07/26 03:55:16;;;;;;;2.92;0.68;;;;;;;10.08;59.86;100890.59;4967940;28;20034;-70
2023/07/26 03:57:43;;;;;;;7.57;1.20;;;;;;;10.18;59.41;100894.53;4966329;28;20036;-70
2023/07/26 04:00:11;;;;;;;8.05;0.63;;;;;;;9.94;60.31;100895.47;4969689;28;20045;-70
2023/07/26 04:02:40;;;;;;;8.35;0.70;;;;;;;10.22;59.53;100895.28;4965309;28;20061;-69
2023/07/26 04:05:05;;;;;;;5.90;0.90;;;;;;;10.21;59.47;100901.41;4969366;28;20566;-68
2023/07/26 04:07:36;;;;;;;10.75;0.95;;;;;;;10.13;59.91;100904.31;4980117;28;20125;-70
2023/07/26 04:10:02;;;;;;;11.07;0.93;;;;;;;10.27;59.63;100905.56;4966821;28;20042;-71
2023/07/26 04:12:28;;;;;;;4.07;0.68;;;;;;;10.34;59.42;100901.78;4961096;28;20078;-71
2023/07/26 04:14:53;;;;;;;4.25;0.70;;;;;;;10.44;59.06;100903.16;4967452;28;20551;-70
2023/07/26 04:17:19;;;;;;;2.72;0.73;;;;;;;10.38;59.44;100921.66;4966004;28;20313;-73
2023/07/26 04:19:44;;;;;;;1.95;0.90;;;;;;;10.24;59.85;100934.44;4952567;28;20382;-74
2023/07/26 04:22:10;;;;;;;3.05;0.43;;;;;;;10.38;59.31;100937.34;4967268;28;20072;-69
2023/07/26 04:24:41;;;;;;;3.33;0.68;;;;;;;10.01;60.09;100946.53;4966865;28;20084;-70
2023/07/26 04:27:06;;;;;;;3.30;0.87;;;;;;;9.92;60.20;100970.38;4968499;28;20509;-70
2023/07/26 04:29:32;;;;;;;2.90;0.80;;;;;;;10.04;59.59;100971.72;4962329;28;20126;-71
2023/07/26 04:31:57;;;;;;;4.53;0.52;;;;;;;9.74;60.19;100975.31;4949082;28;20039;-70
2023/07/26 04:34:22;;;;;;;1.52;0.30;;;;;;;9.35;59.85;100983.59;4945354;28;20035;-70
2023/07/26 04:36:48;;;;;;;1.85;0.65;;;;;;;9.34;58.73;100979.31;4931134;28;20038;-70
2023/07/26 04:39:13;;;;;;;1.35;0.10;;;;;;;9.23;57.89;100978.81;4952052;28;20124;-68
2023/07/26 04:41:39;;;;;;;2.17;0.10;;;;;;;9.16;57.09;100977.28;4964567;28;20079;-69
2023/07/26 04:44:04;;;;;;;0.85;0.20;;;;;;;9.24;56.73;100984.88;4970087;28;20038;-71
2023/07/26 04:46:30;;;;;;;0.82;0.10;;;;;;;9.37;56.34;100979.19;4965418;28;20903;-66
2023/07/26 04:48:55;;;;;;;2.45;0.40;;;;;;;9.09;56.73;100980.97;4967775;28;20050;-67
2023/07/26 04:51:23;;;;;;;0.40;0.10;;;;;;;9.42;56.41;100972.97;4963991;28;20034;-65
2023/07/26 04:53:49;;;;;;;1.25;0.10;;;;;;;9.58;56.40;100976.75;4966919;28;20484;-68
2023/07/26 04:56:15;;;;;;;0.52;0.10;;;;;;;9.65;56.24;100969.56;4967672;28;20035;-68
2023/07/26 04:58:41;;;;;;;1.55;0.10;;;;;;;9.68;56.39;100959.88;4963879;28;20133;-67
2023/07/26 05:01:07;;;;;;;0.75;0.10;;;;;;;9.56;56.68;100961.13;4970779;28;20049;-67
2023/07/26 05:03:34;;;;;;;2.63;0.10;;;;;;;9.54;56.84;100960.38;4965305;28;20500;-65
2023/07/26 05:05:59;;;;;;;1.75;0.10;;;;;;;9.68;56.74;100965.09;4963389;28;20050;-68
2023/07/26 05:08:25;;;;;;;1.10;0.10;;;;;;;9.87;56.42;100964.47;4965817;28;20034;-66
2023/07/26 05:10:51;;;;;;;0.60;0.10;;;;;;;9.99;56.37;100964.03;4966748;28;20038;-67
2023/07/26 05:13:17;;;;;;;0.50;0.20;;;;;;;10.01;56.47;100951.75;4963527;28;20068;-67
2023/07/26 05:15:50;;;;;;;0.30;0.10;;;;;;;10.08;56.31;100955.88;4966302;28;20433;-65
2023/07/26 05:18:19;;;;;;;0.85;0.17;;;;;;;9.88;56.57;100951.38;4963933;28;20030;-67
2023/07/26 05:20:47;;;;;;;0.82;0.55;;;;;;;9.98;56.57;100959.72;4967044;28;20081;-76
2023/07/26 05:23:16;;;;;;;1.33;0.10;;;;;;;10.06;56.29;100960.31;4963528;28;20039;-76
2023/07/26 05:25:42;;;;;;;0.60;0.10;;;;;;;10.02;56.48;100982.22;4948167;28;20030;-75
2023/07/26 05:28:07;;;;;;;1.52;0.17;;;;;;;9.80;56.38;100979.50;4949453;28;20039;-72
2023/07/26 05:30:40;;;;;;;0.75;0.10;;;;;;;10.10;56.82;100981.91;4938349;28;20045;-74
2023/07/26 05:33:06;;;;;;;0.85;0.20;;;;;;;10.64;57.09;100976.41;4951158;28;20034;-66
2023/07/26 05:35:32;;;;;;;0.40;0.15;;;;;;;11.76;54.88;100971.00;4943360;28;20035;-67
2023/07/26 05:37:58;;;;;;;1.15;0.25;;;;;;;12.65;50.62;100961.75;4951960;28;20027;-69
2023/07/26 05:40:24;;;;;;;2.05;0.10;;;;;;;14.82;48.48;100965.53;4961639;28;20113;-74
2023/07/26 05:42:49;;;;;;;0.77;0.20;;;;;;;16.21;43.34;100961.69;4970904;28;20038;-74
2023/07/26 05:45:15;;;;;;;4.05;0.10;;;;;;;17.13;39.90;100957.59;4956151;28;20047;-77
2023/07/26 05:47:41;;;;;;;1.65;0.10;;;;;;;18.91;38.08;100954.91;4951627;28;20191;-72
2023/07/26 05:50:08;;;;;;;2.13;0.22;;;;;;;18.77;37.77;100948.78;4963051;28;20529;-70
2023/07/26 05:52:34;;;;;;;2.15;0.17;;;;;;;19.57;37.22;100948.16;4967322;28;20068;-73
2023/07/26 05:54:59;;;;;;;0.93;0.20;;;;;;;20.56;34.27;100948.34;4959435;28;20055;-67
2023/07/26 05:57:25;;;;;;;1.58;0.15;;;;;;;19.66;37.06;100949.25;4951066;28;20030;-70
2023/07/26 05:59:50;;;;;;;1.83;0.20;;;;;;;20.17;35.79;100937.28;4958697;28;20045;-68
2023/07/26 06:02:16;;;;;;;1.75;0.10;;;;;;;19.27;35.79;100938.88;4971274;28;20088;-71
2023/07/26 06:04:41;;;;;;;0.45;0.10;;;;;;;19.19;35.51;100933.34;4966553;28;20196;-74
2023/07/26 06:07:07;;;;;;;1.80;0.40;;;;;;;21.23;34.56;100931.31;4967759;28;20042;-73
2023/07/26 06:09:36;;;;;;;1.30;0.20;;;;;;;20.95;33.34;100933.59;4970116;28;20038;-74
2023/07/26 06:12:05;;;;;;;1.70;0.38;;;;;;;20.33;36.89;100933.31;4972341;28;20030;-74
2023/07/26 06:14:31;;;;;;;0.73;0.13;;;;;;;21.82;32.55;100937.81;4982551;28;20507;-75
2023/07/26 06:16:58;;;;;;;1.95;0.30;;;;;;;18.99;36.65;100945.44;4969761;28;20034;-75
2023/07/26 06:19:26;;;;;;;1.92;0.38;;;;;;;17.81;42.40;100956.53;4961510;28;20121;-74
2023/07/26 06:21:55;;;;;;;1.30;0.52;;;;;;;17.05;41.52;100957.28;4951816;28;20479;-70
2023/07/26 06:24:25;;;;;;;0.82;0.43;;;;;;;15.69;44.70;100973.63;4948887;28;20031;-71
2023/07/26 06:26:51;;;;;;;1.95;0.20;;;;;;;14.74;45.83;100979.09;4947947;28;20129;-68
2023/07/26 06:29:17;;;;;;;1.23;0.30;;;;;;;13.91;47.87;100988.81;4951269;28;20129;-68
2023/07/26 06:31:42;;;;;;;3.88;0.28;;;;;;;14.41;47.61;100981.81;4968202;28;20034;-68
2023/07/26 06:34:08;;;;;;;3.13;0.73;;;;;;;14.66;47.78;100990.06;4968772;28;20055;-71
2023/07/26 06:36:33;;;;;;;1.40;0.10;;;;;;;15.04;46.38;100973.91;4941752;28;21200;-70
2023/07/26 06:38:59;;;;;;;1.67;0.20;;;;;;;15.22;45.83;100977.28;4947890;28;20626;-70
2023/07/26 06:41:24;;;;;;;2.20;0.20;;;;;;;13.91;47.81;100987.03;4968329;28;20022;-70
2023/07/26 06:43:50;;;;;;;3.50;0.30;;;;;;;13.35;48.06;100982.03;4968600;28;20045;-70
2023/07/26 06:46:16;;;;;;;3.47;0.40;;;;;;;12.06;52.52;100992.38;4963657;28;20151;-69
2023/07/26 06:48:42;;;;;;;3.53;0.30;;;;;;;11.78;52.51;100986.69;4952355;28;20481;-70
2023/07/26 06:51:07;;;;;;;1.85;0.20;;;;;;;11.88;52.98;100988.81;4964184;28;20049;-70
2023/07/26 06:53:33;;;;;;;1.20;0.22;;;;;;;12.03;52.96;100970.72;4961773;28;20093;-71
2023/07/26 06:55:59;;;;;;;1.70;0.30;;;;;;;12.33;52.24;100973.72;4965635;28;20552;-70
2023/07/26 06:58:25;;;;;;;0.68;0.20;;;;;;;12.60;52.34;100974.22;4966340;28;20130;-70
2023/07/26 07:00:51;;;;;;;1.13;0.20;;;;;;;13.35;50.72;100967.13;4953151;28;20035;-70
2023/07/26 07:03:17;;;;;;;0.52;0.10;;;;;;;16.55;44.68;100949.00;4966504;28;20449;-69
2023/07/26 07:05:42;;;;;;;1.27;0.13;;;;;;;19.01;38.71;100958.53;4965360;28;20034;-69
2023/07/26 07:08:08;;;;;;;1.75;0.20;;;;;;;21.07;33.56;100948.53;4971683;28;20104;-71
2023/07/26 07:10:34;;;;;;;3.45;0.35;;;;;;;21.45;32.76;100948.94;4965221;28;21759;-71
2023/07/26 07:12:59;;;;;;;1.35;0.20;;;;;;;21.02;34.68;100958.72;4968420;28;20026;-70
2023/07/26 07:15:25;;;;;;;0.90;0.17;;;;;;;19.50;36.45;100961.00;4968716;28;20038;-70
2023/07/26 07:17:50;;;;;;;1.02;0.35;;;;;;;21.88;34.26;100964.72;4967339;28;20214;-70
2023/07/26 07:20:16;;;;;;;2.42;0.28;;;;;;;22.69;32.95;100961.19;4967172;28;20045;-69
2023/07/26 07:22:44;;;;;;;3.15;0.32;;;;;;;23.37;30.96;100963.88;4965169;28;20226;-68
2023/07/26 07:25:10;;;;;;;2.22;0.20;;;;;;;24.60;28.77;100968.16;4968502;28;20433;-69
2023/07/26 07:27:35;;;;;;;2.05;0.28;;;;;;;23.15;30.93;100970.34;4976540;28;20030;-70
2023/07/26 07:30:01;;;;;;;0.47;0.32;;;;;;;23.50;31.22;100968.88;4983280;28;20480;-70
2023/07/26 07:32:32;;;;;;;0.73;0.20;;;;;;;24.20;29.18;100972.88;4967882;28;20052;-71
2023/07/26 07:34:57;;;;;;;2.05;0.20;;;;;;;23.94;29.69;100967.34;4966415;28;20038;-70
2023/07/26 07:37:23;;;;;;;2.85;0.50;;;;;;;23.25;31.59;100970.31;4969150;28;20038;-70
2023/07/26 07:39:49;;;;;;;1.92;0.30;;;;;;;21.69;32.11;100976.13;4954880;28;20053;-70
2023/07/26 07:42:17;;;;;;;1.85;0.52;;;;;;;22.84;31.89;100973.13;4967287;28;20028;-70
2023/07/26 07:44:43;;;;;;;3.40;0.30;;;;;;;20.68;33.04;100979.19;4964759;28;20133;-69
2023/07/26 07:47:08;;;;;;;5.57;0.35;;;;;;;18.13;37.92;100983.34;4968095;28;20550;-70
2023/07/26 07:49:34;;;;;;;1.67;0.40;;;;;;;19.10;36.97;100979.06;4964071;28;20963;-70
2023/07/26 07:51:59;;;;;;;6.45;0.40;;;;;;;19.75;36.18;100979.47;4968140;28;20139;-69
2023/07/26 07:54:26;;;;;;;2.70;0.50;;;;;;;19.96;35.28;100975.16;4949512;28;20061;-69
2023/07/26 07:56:51;;;;;;;3.90;0.68;;;;;;;21.48;32.73;100969.97;4946013;28;20450;-68
2023/07/26 07:59:19;;;;;;;3.78;0.30;;;;;;;20.87;35.21;100971.44;4937835;28;20049;-69
2023/07/26 08:01:49;;;;;;;1.55;0.30;;;;;;;22.58;32.37;100978.97;4920411;28;20035;-68
2023/07/26 08:04:15;;;;;;;1.65;0.20;;;;;;;21.68;32.30;100979.72;4945374;28;20836;-70
2023/07/26 08:06:43;;;;;;;1.50;0.20;;;;;;;18.98;37.48;100987.91;4944239;28;20073;-70
2023/07/26 08:09:11;;;;;;;0.65;0.40;;;;;;;19.81;37.54;100987.81;4952117;28;20067;-70
2023/07/26 08:11:36;;;;;;;3.90;0.82;;;;;;;20.29;35.32;100990.25;4960205;28;20532;-70
2023/07/26 08:14:03;;;;;;;4.43;0.40;;;;;;;17.75;38.86;100992.16;4961140;28;20034;-71
2023/07/26 08:16:31;;;;;;;1.65;0.38;;;;;;;16.10;41.04;100993.16;4959796;28;20559;-69
2023/07/26 08:19:01;;;;;;;1.85;0.55;;;;;;;15.47;44.50;100997.75;4961526;28;20065;-69
2023/07/26 08:21:26;;;;;;;2.47;1.00;;;;;;;15.62;44.29;100998.66;4967130;28;20379;-70
2023/07/26 08:23:52;;;;;;;1.05;0.40;;;;;;;15.66;44.08;101001.94;4960254;28;20034;-70
2023/07/26 08:26:18;;;;;;;1.70;0.60;;;;;;;15.47;44.27;100996.91;4964453;28;20050;-70
2023/07/26 08:28:44;;;;;;;2.75;0.40;;;;;;;16.75;41.50;101004.00;4961543;28;20041;-68
2023/07/26 08:31:09;;;;;;;3.10;0.38;;;;;;;18.67;38.51;100996.25;4961206;28;20037;-69
2023/07/26 08:33:42;;;;;;;2.58;0.38;;;;;;;21.36;32.71;100980.63;4958682;28;20396;-71
2023/07/26 08:36:08;;;;;;;3.28;0.40;;;;;;;24.30;28.04;100982.66;4961538;28;20043;-70
2023/07/26 08:38:34;;;;;;;1.58;0.17;;;;;;;24.67;26.41;100979.09;4962093;28;20050;-70
2023/07/26 08:41:02;;;;;;;0.95;0.10;;;;;;;24.87;26.40;100977.09;4967033;28;20049;-69
2023/07/26 08:43:31;;;;;;;1.13;0.20;;;;;;;24.50;26.12;100981.56;4964766;28;20445;-70
2023/07/26 08:46:02;;;;;;;1.70;0.30;;;;;;;21.89;27.91;100979.72;4963973;28;20078;-70
2023/07/26 08:48:32;;;;;;;0.70;0.20;;;;;;;23.30;27.49;100974.28;4961758;28;20049;-70
2023/07/26 08:50:59;;;;;;;1.13;0.30;;;;;;;23.11;29.45;100976.91;4961698;28;20128;-69
2023/07/26 08:53:28;;;;;;;0.95;0.20;;;;;;;20.91;31.09;100974.72;4967038;28;20034;-70
2023/07/26 08:55:53;;;;;;;1.73;0.30;;;;;;;21.58;30.02;100978.00;4961885;28;20134;-70
2023/07/26 08:58:19;;;;;;;0.65;0.15;;;;;;;20.48;32.33;100978.16;4965748;28;20133;-70
2023/07/26 09:00:47;;;;;;;1.48;0.20;;;;;;;18.50;35.38;100995.78;4961324;28;20031;-69
2023/07/26 09:03:16;;;;;;;0.50;0.20;;;;;;;18.71;35.42;100982.81;4982236;28;20061;-69
2023/07/26 09:05:45;;;;;;;1.88;0.40;;;;;;;17.56;37.08;100984.66;4963574;28;20042;-69
2023/07/26 09:08:11;;;;;;;2.05;0.30;;;;;;;18.39;37.13;100980.72;4967967;28;20707;-69
2023/07/26 09:10:38;;;;;;;1.08;0.20;;;;;;;18.88;35.37;100980.66;4933824;28;20035;-69
2023/07/26 09:13:14;;;;;;;1.67;0.30;;;;;;;20.32;34.01;100976.72;4949010;28;20334;-70
2023/07/26 09:15:41;;;;;;;1.15;0.30;;;;;;;18.73;36.62;100987.03;4946546;28;20403;-69
2023/07/26 09:18:12;;;;;;;2.00;0.30;;;;;;;19.58;35.05;100981.63;4947392;28;20035;-70
2023/07/26 09:20:38;;;;;;;3.50;0.35;;;;;;;19.60;34.95;100982.38;4948411;28;20535;-70
2023/07/26 09:23:13;;;;;;;6.55;0.60;;;;;;;18.46;35.96;100996.03;4947986;28;20031;-70
2023/07/26 09:25:42;;;;;;;0.68;0.20;;;;;;;18.35;37.85;100988.00;4950724;28;20413;-70
2023/07/26 09:28:10;;;;;;;0.77;0.40;;;;;;;16.39;39.91;100986.91;4967769;28;20042;-70
2023/07/26 09:30:39;;;;;;;3.00;0.30;;;;;;;16.28;40.87;100984.09;4963922;28;20652;-69
2023/07/26 09:33:08;;;;;;;1.30;0.25;;;;;;;15.70;41.77;100982.38;4967849;28;20640;-69
2023/07/26 09:35:49;;;;;;;0.95;0.38;;;;;;;16.05;40.53;100992.59;4965038;28;20999;-69
2023/07/26 09:38:22;;;;;;;0.93;0.38;;;;;;;16.91;39.06;100993.34;4968382;28;20078;-70
2023/07/26 09:40:47;;;;;;;2.70;0.30;;;;;;;17.27;38.73;100985.72;4965052;28;21845;-70
2023/07/26 09:43:13;;;;;;;1.13;0.32;;;;;;;17.93;36.83;100975.97;4965048;28;20531;-70
2023/07/26 09:45:40;;;;;;;1.52;0.25;;;;;;;17.64;37.28;100978.81;4963910;28;20105;-69
2023/07/26 09:48:14;;;;;;;1.65;0.20;;;;;;;17.18;38.12;100995.97;4967055;28;20261;-69
2023/07/26 09:50:43;;;;;;;0.93;0.30;;;;;;;16.06;41.38;100996.91;4958252;28;20248;-69
2023/07/26 09:53:13;;;;;;;2.35;0.60;;;;;;;16.40;40.70;100988.63;4959829;28;20668;-69
2023/07/26 09:55:42;;;;;;;1.90;0.35;;;;;;;16.65;40.08;100992.34;4965584;28;20093;-69
2023/07/26 09:58:11;;;;;;;2.13;0.20;;;;;;;15.57;41.80;100991.03;4968895;28;20042;-69
2023/07/26 10:00:38;;;;;;;1.00;0.55;;;;;;;16.27;41.83;100989.50;4968151;28;20173;-69
2023/07/26 10:03:05;;;;;;;1.52;0.65;;;;;;;16.31;40.93;100989.22;4968766;28;20105;-69
2023/07/26 10:05:39;;;;;;;0.68;0.20;;;;;;;16.64;40.30;100972.16;4969082;28;20112;-69
2023/07/26 10:08:05;;;;;;;0.77;0.45;;;;;;;16.60;40.42;100984.72;4947408;28;21232;-69
2023/07/26 10:10:33;;;;;;;1.10;0.40;;;;;;;16.07;41.68;100990.72;4939017;28;20676;-69
2023/07/26 10:13:00;;;;;;;1.70;0.40;;;;;;;15.76;40.67;100987.28;4945816;28;20041;-70
2023/07/26 10:15:30;;;;;;;1.30;0.63;;;;;;;16.82;41.78;101000.06;4957657;28;20104;-70
2023/07/26 10:17:56;;;;;;;1.00;0.30;;;;;;;16.26;40.21;100979.88;4963468;28;20260;-70
2023/07/26 10:20:23;;;;;;;1.65;0.40;;;;;;;17.72;38.32;100989.72;4965222;28;20030;-71
2023/07/26 10:22:51;;;;;;;1.15;0.30;;;;;;;17.99;35.77;100986.97;4967532;28;20038;-69
2023/07/26 10:25:18;;;;;;;0.75;0.22;;;;;;;18.08;35.73;100982.00;4967713;28;20531;-69
2023/07/26 10:27:45;;;;;;;1.08;0.20;;;;;;;17.76;36.45;100982.41;4966814;28;20945;-70
2023/07/26 10:30:11;;;;;;;2.50;0.57;;;;;;;16.73;39.14;100974.22;4980248;28;20050;-69
2023/07/26 10:32:47;;;;;;;1.02;0.30;;;;;;;18.46;36.52;100981.94;4954219;28;20073;-70
2023/07/26 10:35:32;;;;;;;0.95;0.40;;;;;;;17.78;37.01;100983.16;4953763;28;20043;-69
2023/07/26 10:38:06;;;;;;;3.20;0.30;;;;;;;17.47;36.79;100982.59;4941660;28;20504;-70
2023/07/26 10:40:37;;;;;;;1.73;0.30;;;;;;;17.28;37.63;100990.06;4960508;28;20030;-70
2023/07/26 10:43:21;;;;;;;2.13;0.38;;;;;;;17.31;37.95;100982.75;4966829;28;20541;-71
2023/07/26 10:45:53;;;;;;;1.38;0.20;;;;;;;17.17;37.71;100982.84;4967948;28;20054;-69
2023/07/26 10:48:37;;;;;;;0.65;0.22;;;;;;;17.27;36.99;100989.22;4968666;28;20030;-69
2023/07/26 10:51:23;;;;;;;1.17;0.60;;;;;;;17.77;35.02;100987.59;4966732;28;20038;-69
2023/07/26 10:53:51;;;;;;;0.57;0.35;;;;;;;17.33;35.72;100986.16;4958093;28;20076;-70
2023/07/26 10:56:31;;;;;;;1.55;0.30;;;;;;;18.28;35.55;100989.41;4965663;28;20242;-70
2023/07/26 10:59:04;;;;;;;3.35;0.32;;;;;;;18.24;36.09;100986.13;4964959;28;20835;-69
2023/07/26 11:01:35;;;;;;;1.63;0.30;;;;;;;18.98;33.80;100987.91;4968912;28;20022;-70
2023/07/26 11:04:08;;;;;;;1.05;0.20;;;;;;;19.18;35.63;100984.63;4966521;28;20033;-69
2023/07/26 11:06:55;;;;;;;0.68;0.20;;;;;;;20.08;34.47;100984.81;4963622;28;20465;-69
2023/07/26 11:09:39;;;;;;;1.20;0.20;;;;;;;20.26;32.77;100973.72;4963653;28;20042;-70
2023/07/26 11:12:13;;;;;;;4.10;0.28;;;;;;;19.75;33.27;100969.75;4967060;28;20038;-69
2023/07/26 11:14:41;;;;;;;0.98;0.20;;;;;;;20.63;32.97;100976.09;4977576;28;20030;-69
2023/07/26 11:17:16;;;;;;;0.90;0.20;;;;;;;18.70;35.38;100979.34;4967289;28;20042;-70
2023/07/26 11:19:50;;;;;;;0.75;0.20;;;;;;;19.25;35.48;100975.25;4958032;28;20085;-70
2023/07/26 11:22:18;;;;;;;2.25;0.20;;;;;;;18.78;35.21;100974.31;4964093;28;20508;-70
2023/07/26 11:24:44;;;;;;;1.05;0.40;;;;;;;18.12;36.30;100980.81;4965879;28;20038;-70
2023/07/26 11:27:10;;;;;;;1.10;0.25;;;;;;;17.32;38.01;100975.72;4963773;28;20030;-70
2023/07/26 11:29:36;;;;;;;1.02;0.50;;;;;;;16.93;38.49;100978.22;4961627;28;20034;-69